createdAt,value
2022-08-25T00:01:57.537Z,94.6
2022-08-25T00:04:23.611Z,94.7
2022-08-25T00:06:48.727Z,94.9
2022-08-25T00:09:14.837Z,94.9
2022-08-25T00:11:40.921Z,95
2022-08-25T00:14:07.020Z,94.9
2022-08-25T00:16:33.109Z,94.7
2022-08-25T00:18:59.200Z,95
2022-08-25T00:21:24.329Z,95.3
2022-08-25T00:23:50.427Z,95.8
2022-08-25T00:26:15.549Z,96.3
2022-08-25T00:28:40.652Z,97
2022-08-25T00:31:05.777Z,97.2
2022-08-25T00:33:30.875Z,97.3
2022-08-25T00:35:56.995Z,97.5
2022-08-25T00:38:23.085Z,97.5
2022-08-25T00:40:49.182Z,97.5
2022-08-25T00:43:15.259Z,97.5
2022-08-25T00:45:41.353Z,97.5
2022-08-25T00:48:07.463Z,97.7
2022-08-25T00:52:59.645Z,97.8
2022-08-25T00:55:25.735Z,97.8
2022-08-25T00:57:51.827Z,97.8
2022-08-25T01:00:17.965Z,97.5
2022-08-25T01:02:44.021Z,97.7
2022-08-25T01:05:09.141Z,97.5
2022-08-25T01:07:35.242Z,98
2022-08-25T01:10:01.347Z,98.2
2022-08-25T01:12:27.444Z,98.3
2022-08-25T01:14:53.526Z,98.2
2022-08-25T01:17:19.621Z,98.3
2022-08-25T01:19:45.718Z,98.4
2022-08-25T01:22:11.847Z,98.5
2022-08-25T01:24:36.947Z,98.4
2022-08-25T01:27:02.032Z,98.3
2022-08-25T01:29:28.136Z,98.5
2022-08-25T01:31:54.223Z,98.8
2022-08-25T01:34:20.328Z,99
2022-08-25T01:36:46.417Z,99.2
2022-08-25T01:39:12.527Z,99.1
2022-08-25T01:41:38.622Z,98.9
2022-08-25T01:44:04.697Z,98.8
2022-08-25T01:46:30.793Z,98.8
2022-08-25T01:48:55.920Z,98.8
2022-08-25T01:51:22.024Z,98.7
2022-08-25T01:53:48.102Z,98.7
2022-08-25T01:56:14.207Z,98.6
2022-08-25T01:58:40.299Z,98.7
2022-08-25T02:01:06.422Z,98.6
2022-08-25T02:03:32.491Z,98.6
2022-08-25T02:05:58.586Z,98.6
2022-08-25T02:08:24.677Z,98.8
2022-08-25T02:10:50.780Z,98.7
2022-08-25T02:13:16.869Z,98.8
2022-08-25T02:15:42.035Z,98.9
2022-08-25T02:18:07.119Z,99.1
2022-08-25T02:20:32.226Z,99.2
2022-08-25T02:22:57.334Z,99.2
2022-08-25T02:25:23.443Z,99.1
2022-08-25T02:27:49.523Z,99.1
2022-08-25T02:30:15.632Z,99.2
2022-08-25T02:32:41.739Z,99.1
2022-08-25T02:35:07.822Z,99.2
2022-08-25T02:37:33.912Z,99.3
2022-08-25T02:40:00.019Z,99.3
2022-08-25T02:42:26.110Z,99.6
2022-08-25T02:44:52.202Z,99.6
2022-08-25T02:47:18.297Z,99.7
2022-08-25T02:49:44.384Z,99.6
2022-08-25T02:52:10.495Z,99.9
2022-08-25T02:54:35.604Z,99.8
2022-08-25T02:57:01.692Z,99.6
2022-08-25T02:59:27.786Z,99.7
2022-08-25T03:01:53.887Z,100
2022-08-25T03:04:19.997Z,100
2022-08-25T03:06:46.065Z,100
2022-08-25T03:09:12.171Z,100
2022-08-25T03:11:37.286Z,100
2022-08-25T03:14:02.401Z,100
2022-08-25T03:16:27.535Z,100
2022-08-25T03:18:52.624Z,100
2022-08-25T03:21:18.722Z,100
2022-08-25T03:23:43.869Z,100
2022-08-25T03:26:08.968Z,100
2022-08-25T03:28:35.065Z,100
2022-08-25T03:31:01.164Z,100
2022-08-25T03:33:27.250Z,100
2022-08-25T03:35:53.400Z,100
2022-08-25T03:38:19.439Z,100
2022-08-25T03:40:45.544Z,100
2022-08-25T03:43:11.625Z,100
2022-08-25T03:45:37.744Z,100
2022-08-25T03:48:03.833Z,100
2022-08-25T03:50:29.921Z,100
2022-08-25T03:52:56.025Z,100
2022-08-25T03:55:22.118Z,100
2022-08-25T03:57:47.217Z,100
2022-08-25T04:00:13.307Z,100
2022-08-25T04:02:39.423Z,100
2022-08-25T04:05:05.509Z,100
2022-08-25T04:07:31.613Z,100
2022-08-25T04:09:57.701Z,100
2022-08-25T04:12:23.805Z,100
2022-08-25T04:14:48.917Z,100
2022-08-25T04:17:14.038Z,100
2022-08-25T04:19:40.127Z,100
2022-08-25T04:22:06.232Z,100
2022-08-25T04:24:32.314Z,100
2022-08-25T04:26:58.414Z,100
2022-08-25T04:29:24.545Z,100
2022-08-25T04:31:50.596Z,100
2022-08-25T04:34:16.707Z,100
2022-08-25T04:36:42.794Z,100
2022-08-25T04:39:08.894Z,100
2022-08-25T04:41:34.990Z,100
2022-08-25T04:44:01.079Z,100
2022-08-25T04:46:27.181Z,100
2022-08-25T04:48:52.292Z,100
2022-08-25T04:51:18.394Z,100
2022-08-25T04:53:44.468Z,100
2022-08-25T04:56:10.575Z,100
2022-08-25T04:58:36.691Z,100
2022-08-25T05:01:02.767Z,100
2022-08-25T05:03:28.859Z,100
2022-08-25T05:05:53.972Z,100
2022-08-25T05:08:19.079Z,100
2022-08-25T05:10:45.172Z,100
2022-08-25T05:13:11.282Z,100
2022-08-25T05:15:37.376Z,100
2022-08-25T05:18:03.470Z,100
2022-08-25T05:20:29.564Z,100
2022-08-25T05:22:55.744Z,100
2022-08-25T05:25:21.737Z,100
2022-08-25T05:27:47.851Z,100
2022-08-25T05:30:13.933Z,100
2022-08-25T05:32:40.058Z,100
2022-08-25T05:35:06.117Z,100
2022-08-25T05:37:32.226Z,100
2022-08-25T05:39:57.335Z,100
2022-08-25T05:42:23.427Z,99.8
2022-08-25T05:44:49.524Z,99.6
2022-08-25T05:47:15.623Z,99.3
2022-08-25T05:49:41.716Z,99.2
2022-08-25T05:52:07.810Z,99
2022-08-25T05:54:33.905Z,98.7
2022-08-25T05:56:59.021Z,98.2
2022-08-25T05:59:24.147Z,97.9
2022-08-25T06:01:49.255Z,97.6
2022-08-25T06:04:14.377Z,97.3
2022-08-25T06:06:39.503Z,97.2
2022-08-25T06:09:04.600Z,97.1
2022-08-25T06:11:29.731Z,96.8
2022-08-25T06:13:54.838Z,96.4
2022-08-25T06:16:20.927Z,95.9
2022-08-25T06:18:47.023Z,95.7
2022-08-25T06:21:13.123Z,95.3
2022-08-25T06:23:39.226Z,94.8
2022-08-25T06:26:05.300Z,94.5
2022-08-25T06:28:31.411Z,94.2
2022-08-25T06:30:57.505Z,93.9
2022-08-25T06:35:49.694Z,93.6
2022-08-25T06:38:15.783Z,93.4
2022-08-25T06:40:41.891Z,92.9
2022-08-25T06:45:34.079Z,92.8
2022-08-25T06:47:59.203Z,92.4
2022-08-25T06:50:24.307Z,92.2
2022-08-25T06:52:50.411Z,91.6
2022-08-25T06:55:16.494Z,91.6
2022-08-25T06:57:42.600Z,91.2
2022-08-25T07:00:08.686Z,90.8
2022-08-25T07:02:34.800Z,90.9
2022-08-25T07:05:00.880Z,90.7
2022-08-25T07:07:26.964Z,89.9
2022-08-25T07:09:53.063Z,89.6
2022-08-25T07:12:19.161Z,89
2022-08-25T07:14:44.275Z,89.1
2022-08-25T07:17:09.396Z,88.8
2022-08-25T07:19:35.483Z,88.6
2022-08-25T07:22:01.580Z,88.3
2022-08-25T07:24:27.665Z,87.9
2022-08-25T07:26:53.759Z,87.3
2022-08-25T07:29:19.886Z,86.9
2022-08-25T07:31:45.964Z,86.5
2022-08-25T07:34:12.056Z,86.5
2022-08-25T07:36:38.175Z,86.4
2022-08-25T07:39:04.255Z,85.9
2022-08-25T07:41:30.380Z,85.5
2022-08-25T07:43:56.426Z,85.1
2022-08-25T07:46:22.530Z,84.7
2022-08-25T07:48:47.638Z,84.1
2022-08-25T07:51:13.751Z,83.9
2022-08-25T07:53:39.835Z,83.6
2022-08-25T07:56:05.962Z,82.9
2022-08-25T07:58:32.038Z,83
2022-08-25T08:00:58.149Z,81.6
2022-08-25T08:03:24.255Z,81.2
2022-08-25T08:05:49.369Z,80.6
2022-08-25T08:08:14.444Z,80.1
2022-08-25T08:10:40.588Z,79.8
2022-08-25T08:13:06.673Z,79.7
2022-08-25T08:15:31.748Z,79.5
2022-08-25T08:17:56.911Z,78.8
2022-08-25T08:20:22.993Z,78.8
2022-08-25T08:22:49.092Z,78.3
2022-08-25T08:25:15.176Z,78.3
2022-08-25T08:27:41.250Z,77.9
2022-08-25T08:30:07.353Z,78.3
2022-08-25T08:32:33.484Z,77.7
2022-08-25T08:34:59.535Z,77.6
2022-08-25T08:37:25.681Z,77.6
2022-08-25T08:39:51.771Z,77.3
2022-08-25T08:42:17.837Z,76.6
2022-08-25T08:44:43.940Z,75.7
2022-08-25T08:47:10.029Z,75.5
2022-08-25T08:49:35.168Z,74
2022-08-25T08:52:01.238Z,74.1
2022-08-25T08:54:27.312Z,73.8
2022-08-25T08:56:53.412Z,73.3
2022-08-25T08:59:19.502Z,73.3
2022-08-25T09:01:45.614Z,73.7
2022-08-25T09:04:11.699Z,72.8
2022-08-25T09:06:36.836Z,72.5
2022-08-25T09:09:01.927Z,71.6
2022-08-25T09:11:27.088Z,71.9
2022-08-25T09:13:52.158Z,71.4
2022-08-25T09:16:18.275Z,70.1
2022-08-25T09:18:44.367Z,70.3
2022-08-25T09:21:10.491Z,69.5
2022-08-25T09:23:36.587Z,68.8
2022-08-25T09:26:02.666Z,68.6
2022-08-25T09:28:28.772Z,68.2
2022-08-25T09:30:54.870Z,66.7
2022-08-25T09:33:20.961Z,66.6
2022-08-25T09:35:47.029Z,66.6
2022-08-25T09:38:13.145Z,66.4
2022-08-25T09:40:39.235Z,65.7
2022-08-25T09:43:05.310Z,65.3
2022-08-25T09:45:30.454Z,64.6
2022-08-25T09:47:56.504Z,65.2
2022-08-25T09:50:22.601Z,65.4
2022-08-25T09:52:48.722Z,64.6
2022-08-25T09:55:14.835Z,63.6
2022-08-25T09:57:39.928Z,63.3
2022-08-25T10:00:06.044Z,63.1
2022-08-25T10:02:31.121Z,63.6
2022-08-25T10:04:56.283Z,63.4
2022-08-25T10:07:21.395Z,63.8
2022-08-25T10:09:46.492Z,64.5
2022-08-25T10:12:12.572Z,63
2022-08-25T10:14:38.668Z,62.7
2022-08-25T10:17:04.788Z,62.3
2022-08-25T10:19:30.872Z,62.2
2022-08-25T10:21:56.983Z,62.6
2022-08-25T10:24:23.043Z,62.6
2022-08-25T10:26:49.169Z,62.4
2022-08-25T10:29:15.233Z,62.6
2022-08-25T10:31:41.343Z,63.5
2022-08-25T10:34:07.419Z,62.8
2022-08-25T10:36:33.519Z,63.4
2022-08-25T10:38:59.620Z,62.4
2022-08-25T10:41:24.810Z,62.8
2022-08-25T10:43:50.842Z,63.3
2022-08-25T10:46:16.953Z,62.6
2022-08-25T10:48:43.065Z,62.8
2022-08-25T10:51:09.125Z,63.5
2022-08-25T10:53:35.199Z,63.5
2022-08-25T10:56:01.309Z,64.2
2022-08-25T10:58:26.456Z,63.3
2022-08-25T11:00:51.520Z,62.4
2022-08-25T11:03:17.649Z,61.6
2022-08-25T11:05:43.786Z,60.2
2022-08-25T11:08:08.870Z,60.3
2022-08-25T11:10:33.989Z,60.2
2022-08-25T11:13:00.047Z,60.8
2022-08-25T11:15:26.180Z,60.5
2022-08-25T11:17:52.235Z,59.4
2022-08-25T11:20:18.339Z,59.1
2022-08-25T11:22:44.440Z,58.4
2022-08-25T11:25:10.559Z,58.9
2022-08-25T11:27:36.623Z,57.8
2022-08-25T11:30:02.749Z,58.2
2022-08-25T11:32:28.837Z,58
2022-08-25T11:34:54.908Z,57.4
2022-08-25T11:37:20.990Z,56.2
2022-08-25T11:39:47.100Z,56.8
2022-08-25T11:42:12.240Z,56.7
2022-08-25T11:44:38.324Z,55.2
2022-08-25T11:47:04.389Z,54.8
2022-08-25T11:49:30.514Z,52.9
2022-08-25T11:51:56.600Z,52.5
2022-08-25T11:54:22.702Z,52.8
2022-08-25T11:56:48.794Z,53.5
2022-08-25T11:59:13.929Z,51.8
2022-08-25T12:01:39.051Z,52.2
2022-08-25T12:04:05.146Z,53.2
2022-08-25T12:06:30.279Z,53.3
2022-08-25T12:08:55.365Z,54.4
2022-08-25T12:11:21.468Z,52.4
2022-08-25T12:13:47.527Z,51.8
2022-08-25T12:16:13.628Z,50.9
2022-08-25T12:18:39.756Z,51.1
2022-08-25T12:21:05.854Z,50.9
2022-08-25T12:23:31.937Z,51.6
2022-08-25T12:25:57.999Z,52
2022-08-25T12:28:24.119Z,51.6
2022-08-25T12:30:50.467Z,50.3
2022-08-25T12:33:16.291Z,49.9
2022-08-25T12:35:42.398Z,49.5
2022-08-25T12:38:08.482Z,50.8
2022-08-25T12:40:33.607Z,50.3
2022-08-25T12:42:59.734Z,49.5
2022-08-25T12:45:25.825Z,49.5
2022-08-25T12:47:51.900Z,48.8
2022-08-25T12:50:17.999Z,48
2022-08-25T12:52:44.102Z,48.6
2022-08-25T12:55:10.158Z,48.1
2022-08-25T12:57:35.294Z,48
2022-08-25T13:00:00.418Z,48.4
2022-08-25T13:02:25.545Z,49.5
2022-08-25T13:04:50.667Z,50.5
2022-08-25T13:07:16.757Z,49.8
2022-08-25T13:09:42.847Z,48.5
2022-08-25T13:12:08.923Z,48.9
2022-08-25T13:14:35.011Z,48.9
2022-08-25T13:17:01.115Z,49.3
2022-08-25T13:19:27.236Z,49.8
2022-08-25T13:21:53.323Z,49.9
2022-08-25T13:24:19.441Z,52
2022-08-25T13:26:45.492Z,51
2022-08-25T13:29:11.622Z,51.6
2022-08-25T13:31:38.182Z,52.9
2022-08-25T13:34:03.835Z,54.4
2022-08-25T13:36:28.875Z,53.7
2022-08-25T13:38:54.974Z,52.9
2022-08-25T13:43:47.175Z,51.2
2022-08-25T13:46:13.284Z,51.1
2022-08-25T13:48:39.414Z,48.8
2022-08-25T13:51:05.488Z,47.8
2022-08-25T13:53:31.568Z,49.1
2022-08-25T13:55:56.724Z,49.8
2022-08-25T13:58:21.783Z,48.8
2022-08-25T14:00:47.253Z,47.5
2022-08-25T14:03:12.014Z,45.8
2022-08-25T14:05:38.115Z,44.5
2022-08-25T14:08:04.222Z,45.8
2022-08-25T14:10:30.341Z,44.6
2022-08-25T14:12:56.425Z,43.6
2022-08-25T14:15:22.544Z,43
2022-08-25T14:17:48.607Z,45.1
2022-08-25T14:20:14.733Z,45.7
2022-08-25T14:22:40.794Z,48.1
2022-08-25T14:25:06.930Z,48.6
2022-08-25T14:27:32.991Z,48
2022-08-25T14:29:59.077Z,49.2
2022-08-25T14:32:25.226Z,49.4
2022-08-25T14:34:50.284Z,49.9
2022-08-25T14:37:16.378Z,48
2022-08-25T14:39:42.510Z,45.4
2022-08-25T14:42:08.806Z,46.6
2022-08-25T14:44:34.670Z,47.6
2022-08-25T14:47:00.763Z,49.5
2022-08-25T14:49:26.867Z,50.1
2022-08-25T14:51:51.998Z,51.2
2022-08-25T14:54:17.093Z,51.9
2022-08-25T14:56:42.211Z,51.8
2022-08-25T14:59:07.358Z,51.9
2022-08-25T15:01:33.465Z,51.7
2022-08-25T15:03:59.554Z,49.3
2022-08-25T15:06:25.635Z,48.3
2022-08-25T15:08:51.744Z,49.3
2022-08-25T15:11:17.859Z,51.3
2022-08-25T15:13:43.959Z,51.1
2022-08-25T15:16:10.066Z,48.4
2022-08-25T15:18:36.126Z,47.3
2022-08-25T15:21:02.208Z,46.9
2022-08-25T15:23:28.304Z,45
2022-08-25T15:25:54.438Z,45.9
2022-08-25T15:28:20.507Z,48.1
2022-08-25T15:30:45.630Z,50
2022-08-25T15:33:11.728Z,51.8
2022-08-25T15:35:37.829Z,53.7
2022-08-25T15:38:03.930Z,53.3
2022-08-25T15:40:30.012Z,54.4
2022-08-25T15:42:56.088Z,49.3
2022-08-25T15:45:22.217Z,46.7
2022-08-25T15:47:47.333Z,49
2022-08-25T15:50:12.411Z,49.7
2022-08-25T15:52:37.564Z,49.6
2022-08-25T15:55:02.695Z,48.7
2022-08-25T15:57:28.771Z,49.8
2022-08-25T15:59:54.842Z,52.1
2022-08-25T16:02:20.980Z,53.5
2022-08-25T16:04:47.078Z,53.7
2022-08-25T16:07:13.163Z,54.7
2022-08-25T16:09:39.231Z,54.5
2022-08-25T16:12:05.364Z,54.4
2022-08-25T16:14:31.461Z,53
2022-08-25T16:16:57.544Z,52.5
2022-08-25T16:19:23.656Z,48.5
2022-08-25T16:21:49.747Z,46.6
2022-08-25T16:24:15.838Z,47.9
2022-08-25T16:26:40.957Z,45.9
2022-08-25T16:29:07.043Z,45.7
2022-08-25T16:31:33.132Z,45.7
2022-08-25T16:33:59.236Z,45.5
2022-08-25T16:36:25.299Z,46.5
2022-08-25T16:38:51.431Z,46.4
2022-08-25T16:41:17.524Z,48.1
2022-08-25T16:43:42.609Z,46.5
2022-08-25T16:46:07.727Z,47.6
2022-08-25T16:48:32.847Z,47.2
2022-08-25T16:50:58.009Z,47.8
2022-08-25T16:53:24.045Z,48.5
2022-08-25T16:55:50.169Z,47.7
2022-08-25T16:58:16.277Z,48.3
2022-08-25T17:00:42.330Z,47.7
2022-08-25T17:03:08.476Z,48.3
2022-08-25T17:05:34.578Z,48.9
2022-08-25T17:08:00.639Z,49.5
2022-08-25T17:10:26.765Z,50.5
2022-08-25T17:12:52.863Z,49.9
2022-08-25T17:15:18.931Z,51.6
2022-08-25T17:17:45.028Z,52.3
2022-08-25T17:20:11.193Z,53.8
2022-08-25T17:22:36.223Z,55.9
2022-08-25T17:25:02.315Z,58.6
2022-08-25T17:27:28.468Z,61.3
2022-08-25T17:29:54.515Z,61.4
2022-08-25T17:32:20.608Z,62.4
2022-08-25T17:34:46.697Z,62.8
2022-08-25T17:37:12.797Z,64.2
2022-08-25T17:39:37.915Z,65.5
2022-08-25T17:42:03.037Z,65.5
2022-08-25T17:44:29.156Z,66.8
2022-08-25T17:46:55.223Z,67
2022-08-25T17:49:21.324Z,67.3
2022-08-25T17:51:47.410Z,67
2022-08-25T17:54:13.498Z,68.1
2022-08-25T17:56:39.600Z,68.8
2022-08-25T17:59:05.703Z,69.1
2022-08-25T18:01:31.806Z,69.4
2022-08-25T18:03:57.903Z,70.6
2022-08-25T18:06:23.014Z,69.5
2022-08-25T18:08:49.091Z,70.3
2022-08-25T18:11:15.205Z,71.2
2022-08-25T18:13:41.289Z,71.2
2022-08-25T18:16:07.379Z,71.9
2022-08-25T18:18:33.494Z,71.9
2022-08-25T18:20:59.588Z,72.9
2022-08-25T18:23:25.666Z,73
2022-08-25T18:25:51.765Z,73.6
2022-08-25T18:28:17.895Z,73.4
2022-08-25T18:30:42.989Z,74.1
2022-08-25T18:33:08.111Z,74
2022-08-25T18:35:33.238Z,74.5
2022-08-25T18:37:58.346Z,75.4
2022-08-25T18:40:24.425Z,75.2
2022-08-25T18:42:50.519Z,75
2022-08-25T18:45:16.608Z,75.4
2022-08-25T18:47:42.727Z,75.3
2022-08-25T18:50:08.820Z,76.5
2022-08-25T18:52:34.903Z,76.6
2022-08-25T18:55:00.988Z,76.5
2022-08-25T18:57:27.127Z,76.3
2022-08-25T18:59:53.189Z,76.3
2022-08-25T19:02:19.281Z,76.7
2022-08-25T19:04:45.396Z,77
2022-08-25T19:07:11.470Z,77.1
2022-08-25T19:09:36.582Z,77.8
2022-08-25T19:12:02.685Z,78.4
2022-08-25T19:14:28.763Z,77.8
2022-08-25T19:16:54.855Z,78
2022-08-25T19:19:20.954Z,78.5
2022-08-25T19:21:47.076Z,78.8
2022-08-25T19:24:13.152Z,79.3
2022-08-25T19:26:38.277Z,79.2
2022-08-25T19:29:03.372Z,79.1
2022-08-25T19:31:28.505Z,79.6
2022-08-25T19:33:53.613Z,79.6
2022-08-25T19:36:19.704Z,79.8
2022-08-25T19:38:44.837Z,80.2
2022-08-25T19:41:09.944Z,80.1
2022-08-25T19:43:36.037Z,80.6
2022-08-25T19:46:02.130Z,80.6
2022-08-25T19:48:28.237Z,80.8
2022-08-25T19:50:54.312Z,81.7
2022-08-25T19:53:20.423Z,81.3
2022-08-25T19:55:46.514Z,81.5
2022-08-25T19:58:12.598Z,81.8
2022-08-25T20:00:38.709Z,81.7
2022-08-25T20:03:04.789Z,81.7
2022-08-25T20:05:30.909Z,82.3
2022-08-25T20:07:57.008Z,82.6
2022-08-25T20:10:23.072Z,82.8
2022-08-25T20:12:48.186Z,82.9
2022-08-25T20:15:14.305Z,82.7
2022-08-25T20:17:40.393Z,83.2
2022-08-25T20:20:06.476Z,83.3
2022-08-25T20:22:32.571Z,83.5
2022-08-25T20:24:58.679Z,83.3
2022-08-25T20:27:24.775Z,83.8
2022-08-25T20:29:49.877Z,84
2022-08-25T20:32:15.002Z,84.3
2022-08-25T20:34:41.081Z,84
2022-08-25T20:37:06.212Z,84.3
2022-08-25T20:39:31.329Z,84.5
2022-08-25T20:41:57.437Z,84.7
2022-08-25T20:44:23.511Z,84.5
2022-08-25T20:46:49.616Z,84.9
2022-08-25T20:49:15.700Z,84.9
2022-08-25T20:51:41.812Z,85.1
2022-08-25T20:54:07.894Z,85.3
2022-08-25T20:56:33.980Z,85.6
2022-08-25T20:59:00.103Z,85.6
2022-08-25T21:01:26.469Z,85.8
2022-08-25T21:03:52.283Z,85.9
2022-08-25T21:06:18.368Z,86.2
2022-08-25T21:08:44.465Z,86.4
2022-08-25T21:11:09.595Z,86.5
2022-08-25T21:13:35.689Z,86.7
2022-08-25T21:16:01.765Z,87.1
2022-08-25T21:18:27.865Z,87.3
2022-08-25T21:20:53.972Z,87.3
2022-08-25T21:23:20.080Z,87.6
2022-08-25T21:25:46.179Z,88.1
2022-08-25T21:28:11.273Z,88.2
2022-08-25T21:30:36.415Z,88
2022-08-25T21:33:02.487Z,88.4
2022-08-25T21:35:28.586Z,88.7
2022-08-25T21:37:53.722Z,88.8
2022-08-25T21:40:18.811Z,89.1
2022-08-25T21:42:44.915Z,89.1
2022-08-25T21:45:11.015Z,89.5
2022-08-25T21:47:37.107Z,89.8
2022-08-25T21:50:03.231Z,90
2022-08-25T21:52:29.295Z,90
2022-08-25T21:54:55.397Z,90.3
2022-08-25T21:57:21.481Z,90.4
2022-08-25T21:59:47.598Z,90.5
2022-08-25T22:02:13.683Z,90.6
2022-08-25T22:04:39.772Z,90.6
2022-08-25T22:07:05.862Z,91.1
2022-08-25T22:09:31.972Z,91
2022-08-25T22:11:57.068Z,91
2022-08-25T22:14:23.175Z,91.2
2022-08-25T22:16:49.276Z,91.3
2022-08-25T22:19:15.366Z,91
2022-08-25T22:21:41.448Z,91.2
2022-08-25T22:24:07.549Z,91.3
2022-08-25T22:26:33.646Z,91.3
2022-08-25T22:28:58.764Z,91.5
2022-08-25T22:31:23.885Z,91.7
2022-08-25T22:33:49.020Z,91.7
2022-08-25T22:36:14.120Z,92
2022-08-25T22:38:40.218Z,92.3
2022-08-25T22:41:06.301Z,92.6
2022-08-25T22:43:32.412Z,92.5
2022-08-25T22:45:58.484Z,92.6
2022-08-25T22:48:24.604Z,92.8
2022-08-25T22:50:50.691Z,92.7
2022-08-25T22:53:16.781Z,92.8
2022-08-25T22:55:42.885Z,93.2
2022-08-25T22:58:08.967Z,93.1
2022-08-25T23:00:35.066Z,93.3
2022-08-25T23:03:01.166Z,93.3
2022-08-25T23:05:27.261Z,93.5
2022-08-25T23:07:52.373Z,93.5
2022-08-25T23:10:18.457Z,93.6
2022-08-25T23:12:44.575Z,93.8
2022-08-25T23:15:10.644Z,93.7
2022-08-25T23:17:36.739Z,93.9
2022-08-25T23:20:02.843Z,94.2
2022-08-25T23:22:28.968Z,94.2
2022-08-25T23:24:54.056Z,94.6
2022-08-25T23:27:19.172Z,94.6
2022-08-25T23:29:44.303Z,94.5
2022-08-25T23:32:09.405Z,94.5
2022-08-25T23:34:35.498Z,94.6
2022-08-25T23:37:01.588Z,94.6
2022-08-25T23:39:27.701Z,94.6
2022-08-25T23:41:53.774Z,94.6
2022-08-25T23:44:19.874Z,94.9
2022-08-25T23:46:45.985Z,95.1
2022-08-25T23:49:12.063Z,95.4
2022-08-25T23:51:38.158Z,95.6
2022-08-25T23:54:04.255Z,95.7
2022-08-25T23:56:30.349Z,95.7
2022-08-25T23:58:56.436Z,95.8
